Crocus, North Dakota
Current Conditions -  °F | °C
As of 12:15 PM on Friday 28 Nov 2014 (Local Time) from K06D Reporting Station
Light Snow Light Snow  
Wind Chill: -23°   Ceiling: 600
Heat Index: -13°   Visibility: 5mi
Dew Point: -15°   Wind: 16mph
Humidity: 85%   Direction: 120°ESE
Pressure: 29.76"   Gusts: NA
Location:  48.8584°N, 99.1311°W
Report Text: K06D 281815Z AUTO 12014KT 5SM -SN BKN006 OVC021 M13/M15 A2976 RMK AO2
Loading
Personal Weather Stations






























Interactive Weather Map New forecast layout! Learn more

10-Day Weather Forecast

Advertisements
Track Severe Weather on mobile